createdAt,value
2023-06-15T00:02:12.462Z,16.76
2023-06-15T00:06:13.309Z,16.42
2023-06-15T00:10:15.012Z,16.54
2023-06-15T00:14:15.294Z,16.46
2023-06-15T00:18:19.035Z,16.46
2023-06-15T00:22:19.924Z,16.68
2023-06-15T00:26:20.410Z,16.42
2023-06-15T00:30:23.309Z,16.35
2023-06-15T00:34:26.823Z,16.46
2023-06-15T00:38:28.011Z,16.33
2023-06-15T00:42:28.742Z,16.16
2023-06-15T00:46:31.107Z,16.13
2023-06-15T00:50:34.559Z,15.84
2023-06-15T00:54:37.898Z,15.94
2023-06-15T00:58:40.713Z,15.85
2023-06-15T01:02:42.689Z,15.90
2023-06-15T01:06:52.941Z,15.92
2023-06-15T01:10:57.648Z,15.76
2023-06-15T01:15:00.067Z,15.76
2023-06-15T01:19:02.617Z,15.91
2023-06-15T01:23:27.144Z,15.81
2023-06-15T01:27:31.318Z,15.44
2023-06-15T01:31:35.504Z,15.52
2023-06-15T01:35:36.722Z,15.57
2023-06-15T01:39:37.392Z,15.38
2023-06-15T01:43:44.102Z,15.41
2023-06-15T01:47:46.450Z,15.42
2023-06-15T01:51:47.580Z,15.42
2023-06-15T01:55:48.792Z,15.37
2023-06-15T01:59:52.662Z,15.41
2023-06-15T02:03:54.695Z,15.47
2023-06-15T02:07:55.139Z,15.43
2023-06-15T02:11:56.341Z,15.07
2023-06-15T02:15:59.446Z,15.21
2023-06-15T02:20:00.453Z,15.10
2023-06-15T02:24:01.942Z,15.11
2023-06-15T02:28:02.601Z,15.13
2023-06-15T02:32:06.457Z,15.16
2023-06-15T02:36:08.714Z,14.99
2023-06-15T02:40:15.106Z,14.74
2023-06-15T02:44:16.333Z,14.88
2023-06-15T02:48:19.208Z,14.80
2023-06-15T02:52:20.140Z,14.47
2023-06-15T02:56:22.795Z,14.69
2023-06-15T03:00:24.697Z,14.64
2023-06-15T03:04:46.063Z,14.61
2023-06-15T03:08:52.258Z,14.56
2023-06-15T03:12:59.474Z,14.53
2023-06-15T03:17:00.821Z,14.51
2023-06-15T03:21:04.137Z,14.37
2023-06-15T03:25:04.582Z,14.49
2023-06-15T03:29:05.202Z,14.01
2023-06-15T03:33:09.202Z,14.55
2023-06-15T03:37:12.287Z,14.63
2023-06-15T03:41:16.196Z,14.54
2023-06-15T03:45:17.080Z,14.56
2023-06-15T03:49:18.767Z,14.52
2023-06-15T03:53:22.876Z,14.53
2023-06-15T03:57:23.532Z,14.63
2023-06-15T04:01:26.447Z,14.86
2023-06-15T04:05:27.565Z,14.90
2023-06-15T04:09:31.414Z,14.74
2023-06-15T04:13:32.780Z,14.82
2023-06-15T04:17:36.742Z,14.93
2023-06-15T04:21:38.321Z,14.90
2023-06-15T04:25:43.762Z,14.97
2023-06-15T04:29:51.270Z,14.90
2023-06-15T04:34:00.086Z,15.04
2023-06-15T04:38:05.673Z,15.00
2023-06-15T04:42:10.787Z,15.01
2023-06-15T04:46:12.737Z,15.12
2023-06-15T04:50:16.038Z,15.20
2023-06-15T04:54:16.695Z,15.06
2023-06-15T04:58:19.821Z,15.42
2023-06-15T05:02:21.922Z,15.55
2023-06-15T05:06:23.634Z,15.63
2023-06-15T05:10:37.197Z,15.84
2023-06-15T05:14:47.200Z,16.00
2023-06-15T05:18:48.262Z,16.08
2023-06-15T05:22:49.267Z,15.69
2023-06-15T05:26:51.090Z,16.26
2023-06-15T05:30:54.379Z,16.44
2023-06-15T05:34:55.119Z,16.59
2023-06-15T05:38:56.098Z,16.79
2023-06-15T05:42:56.653Z,17.03
2023-06-15T05:47:00.179Z,17.47
2023-06-15T05:51:00.874Z,17.87
2023-06-15T05:55:03.764Z,17.98
2023-06-15T05:59:08.673Z,18.30
2023-06-15T06:03:19.100Z,18.50
2023-06-15T06:07:23.311Z,18.66
2023-06-15T06:11:24.460Z,19.01
2023-06-15T06:15:28.587Z,19.23
2023-06-15T06:19:31.459Z,19.48
2023-06-15T06:23:34.294Z,19.41
2023-06-15T06:27:34.603Z,19.91
2023-06-15T06:31:35.112Z,19.99
2023-06-15T06:35:38.191Z,19.98
2023-06-15T06:39:40.355Z,20.36
2023-06-15T06:43:41.852Z,20.46
2023-06-15T06:47:42.302Z,20.57
2023-06-15T06:51:46.123Z,20.45
2023-06-15T06:55:46.488Z,20.79
2023-06-15T06:59:46.876Z,20.94
2023-06-15T07:03:47.606Z,20.89
2023-06-15T07:07:51.261Z,21.13
2023-06-15T07:11:51.712Z,21.40
2023-06-15T07:15:55.637Z,21.43
2023-06-15T07:19:56.143Z,21.48
2023-06-15T07:23:59.168Z,21.64
2023-06-15T07:27:59.456Z,21.98
2023-06-15T07:31:59.955Z,22.20
2023-06-15T07:36:03.178Z,22.43
2023-06-15T07:40:06.337Z,22.47
2023-06-15T07:44:13.627Z,22.66
2023-06-15T07:48:14.127Z,22.98
2023-06-15T07:52:14.492Z,23.19
2023-06-15T07:56:17.324Z,23.85
2023-06-15T08:00:19.832Z,24.04
2023-06-15T08:04:23.374Z,25.25
2023-06-15T08:08:24.463Z,27.42
2023-06-15T08:12:27.928Z,28.85
2023-06-15T08:16:28.520Z,28.67
2023-06-15T08:20:28.864Z,28.66
2023-06-15T08:24:29.836Z,28.26
2023-06-15T08:28:41.286Z,28.37
2023-06-15T08:32:52.756Z,28.80
2023-06-15T08:36:53.241Z,30.06
2023-06-15T08:40:53.672Z,30.81
2023-06-15T08:44:59.268Z,30.34
2023-06-15T08:49:01.731Z,30.83
2023-06-15T08:53:03.745Z,30.94
2023-06-15T08:57:04.752Z,29.21
2023-06-15T09:01:09.316Z,30.61
2023-06-15T09:05:10.833Z,31.63
2023-06-15T09:09:11.986Z,32.15
2023-06-15T09:13:20.280Z,32.61
2023-06-15T09:17:30.987Z,33.56
2023-06-15T09:21:32.261Z,32.05
2023-06-15T09:25:35.352Z,31.49
2023-06-15T09:29:35.886Z,30.25
2023-06-15T09:33:38.711Z,31.09
2023-06-15T09:37:39.054Z,31.21
2023-06-15T09:41:39.900Z,31.98
2023-06-15T09:45:41.537Z,33.61
2023-06-15T09:49:48.303Z,34.54
2023-06-15T09:53:52.783Z,35.17
2023-06-15T09:57:56.099Z,33.72
2023-06-15T10:02:00.104Z,33.58
2023-06-15T10:06:10.447Z,32.34
2023-06-15T10:10:13.921Z,32.71
2023-06-15T10:14:23.045Z,32.18
2023-06-15T10:18:26.105Z,31.12
2023-06-15T10:22:30.689Z,29.29
2023-06-15T10:26:31.776Z,27.89
2023-06-15T10:30:43.339Z,28.20
2023-06-15T10:34:54.595Z,30.37
2023-06-15T10:39:07.488Z,30.69
2023-06-15T10:43:07.758Z,30.87
2023-06-15T10:47:13.200Z,30.22
2023-06-15T10:51:17.253Z,30.90
2023-06-15T10:55:20.320Z,31.10
2023-06-15T10:59:42.852Z,29.98
2023-06-15T11:03:45.178Z,32.96
2023-06-15T11:07:47.811Z,35.27
2023-06-15T11:11:51.079Z,36.09
2023-06-15T11:16:11.230Z,34.41
2023-06-15T11:20:48.068Z,32.37
2023-06-15T11:24:52.979Z,32.23
2023-06-15T11:28:58.475Z,31.96
2023-06-15T11:32:59.074Z,33.84
2023-06-15T11:37:02.017Z,34.30
2023-06-15T11:41:07.626Z,34.96
2023-06-15T11:45:20.806Z,36.49
2023-06-15T11:49:21.112Z,35.47
2023-06-15T11:53:21.640Z,35.56
2023-06-15T11:57:22.412Z,35.52
2023-06-15T12:01:25.615Z,36.63
2023-06-15T12:05:26.563Z,37.40
2023-06-15T12:09:28.200Z,36.78
2023-06-15T12:13:29.561Z,37.23
2023-06-15T12:17:37.811Z,38.68
2023-06-15T12:21:42.455Z,38.04
2023-06-15T12:25:48.358Z,35.94
2023-06-15T12:29:48.769Z,36.06
2023-06-15T12:33:56.398Z,35.12
2023-06-15T12:37:59.289Z,34.14
2023-06-15T12:42:03.942Z,33.49
2023-06-15T12:46:05.046Z,32.85
2023-06-15T12:50:10.354Z,32.54
2023-06-15T12:54:11.388Z,32.24
2023-06-15T12:58:12.088Z,32.35
2023-06-15T13:02:12.896Z,32.22
2023-06-15T13:06:16.318Z,32.63
2023-06-15T13:10:19.285Z,33.82
2023-06-15T13:14:20.344Z,34.69
2023-06-15T13:18:20.849Z,33.82
2023-06-15T13:22:24.060Z,32.22
2023-06-15T13:26:24.764Z,31.93
2023-06-15T13:30:25.175Z,32.40
2023-06-15T13:34:25.687Z,32.06
2023-06-15T13:38:29.032Z,32.89
2023-06-15T13:42:29.388Z,33.06
2023-06-15T13:46:31.753Z,32.17
2023-06-15T13:50:32.394Z,31.71
2023-06-15T13:54:35.315Z,32.28
2023-06-15T13:58:35.784Z,32.38
2023-06-15T14:02:36.209Z,32.93
2023-06-15T14:06:36.591Z,34.07
2023-06-15T14:10:39.671Z,34.61
2023-06-15T14:14:41.893Z,33.43
2023-06-15T14:18:42.212Z,32.56
2023-06-15T14:22:42.557Z,32.53
2023-06-15T14:26:45.428Z,31.77
2023-06-15T14:30:46.341Z,32.02
2023-06-15T14:34:47.020Z,32.19
2023-06-15T14:38:47.702Z,32.74
2023-06-15T14:42:55.298Z,33.15
2023-06-15T14:46:55.625Z,33.15
2023-06-15T14:50:55.913Z,32.88
2023-06-15T14:54:56.353Z,32.54
2023-06-15T14:59:01.320Z,32.24
2023-06-15T15:03:01.977Z,32.31
2023-06-15T15:07:02.312Z,32.84
2023-06-15T15:11:02.467Z,32.11
2023-06-15T15:15:05.463Z,31.42
2023-06-15T15:19:06.305Z,31.77
2023-06-15T15:23:06.850Z,31.97
2023-06-15T15:27:08.181Z,31.56
2023-06-15T15:31:11.616Z,31.37
2023-06-15T15:35:15.882Z,32.37
2023-06-15T15:39:16.970Z,33.11
2023-06-15T15:43:20.086Z,33.13
2023-06-15T15:47:25.354Z,31.55
2023-06-15T15:51:26.368Z,31.19
2023-06-15T15:55:28.269Z,31.73
2023-06-15T15:59:28.656Z,31.19
2023-06-15T16:03:31.993Z,29.88
2023-06-15T16:07:35.637Z,30.19
2023-06-15T16:11:38.512Z,31.21
2023-06-15T16:15:39.923Z,31.06
2023-06-15T16:19:43.873Z,31.09
2023-06-15T16:23:44.228Z,30.95
2023-06-15T16:27:44.958Z,29.95
2023-06-15T16:31:45.336Z,28.69
2023-06-15T16:35:49.132Z,28.14
2023-06-15T16:39:51.941Z,27.65
2023-06-15T16:43:52.837Z,27.35
2023-06-15T16:47:53.708Z,27.04
2023-06-15T16:51:56.634Z,27.35
2023-06-15T16:55:57.122Z,27.24
2023-06-15T16:59:57.406Z,27.33
2023-06-15T17:03:57.846Z,27.72
2023-06-15T17:08:00.865Z,28.14
2023-06-15T17:12:01.970Z,28.86
2023-06-15T17:16:02.300Z,29.42
2023-06-15T17:20:02.732Z,28.65
2023-06-15T17:24:07.628Z,28.36
2023-06-15T17:28:08.691Z,28.29
2023-06-15T17:32:11.951Z,28.62
2023-06-15T17:36:12.655Z,27.92
2023-06-15T17:40:16.538Z,27.22
2023-06-15T17:44:17.061Z,26.62
2023-06-15T17:48:18.711Z,26.19
2023-06-15T17:52:19.001Z,25.94
2023-06-15T17:56:21.983Z,25.62
2023-06-15T18:00:22.700Z,25.08
2023-06-15T18:04:22.987Z,24.70
2023-06-15T18:08:24.476Z,24.29
2023-06-15T18:12:30.483Z,24.09
2023-06-15T18:16:31.095Z,23.96
2023-06-15T18:20:31.489Z,23.83
2023-06-15T18:24:31.953Z,24.01
2023-06-15T18:28:35.112Z,23.94
2023-06-15T18:32:36.846Z,23.91
2023-06-15T18:36:37.257Z,23.82
2023-06-15T18:40:37.716Z,23.83
2023-06-15T18:44:43.379Z,23.71
2023-06-15T18:48:43.601Z,23.49
2023-06-15T18:52:45.319Z,23.51
2023-06-15T18:56:45.881Z,23.31
2023-06-15T19:00:48.840Z,23.13
2023-06-15T19:04:49.999Z,22.97
2023-06-15T19:08:50.271Z,22.78
2023-06-15T19:12:50.619Z,22.69
2023-06-15T19:16:54.518Z,22.38
2023-06-15T19:20:55.862Z,22.18
2023-06-15T19:24:56.418Z,22.20
2023-06-15T19:28:56.797Z,22.07
2023-06-15T19:32:59.837Z,21.90
2023-06-15T19:37:00.833Z,21.66
2023-06-15T19:41:01.212Z,21.51
2023-06-15T19:45:01.540Z,21.20
2023-06-15T19:49:04.400Z,21.18
2023-06-15T19:53:05.398Z,21.00
2023-06-15T19:57:05.963Z,20.93
2023-06-15T20:01:06.916Z,20.85
2023-06-15T20:05:11.270Z,20.75
2023-06-15T20:09:11.955Z,20.66
2023-06-15T20:13:12.222Z,20.42
2023-06-15T20:17:12.837Z,20.58
2023-06-15T20:21:16.261Z,20.40
2023-06-15T20:25:16.518Z,20.37
2023-06-15T20:29:16.785Z,20.38
2023-06-15T20:33:17.319Z,20.29
2023-06-15T20:37:20.252Z,20.44
2023-06-15T20:41:21.015Z,20.35
2023-06-15T20:45:21.915Z,20.10
2023-06-15T20:49:22.259Z,20.00
2023-06-15T20:53:26.013Z,19.77
2023-06-15T20:57:26.524Z,19.53
2023-06-15T21:01:26.896Z,19.59
2023-06-15T21:05:28.488Z,19.46
2023-06-15T21:09:31.882Z,19.28
2023-06-15T21:13:34.541Z,19.36
2023-06-15T21:17:42.692Z,19.32
2023-06-15T21:21:42.941Z,19.28
2023-06-15T21:25:45.899Z,19.07
2023-06-15T21:29:46.212Z,19.22
2023-06-15T21:33:46.549Z,18.99
2023-06-15T21:37:47.373Z,19.08
2023-06-15T21:41:50.474Z,19.11
2023-06-15T21:45:52.011Z,19.09
2023-06-15T21:49:52.655Z,18.93
2023-06-15T21:53:53.548Z,19.00
2023-06-15T21:57:56.624Z,18.83
2023-06-15T22:01:57.071Z,18.65
2023-06-15T22:05:57.664Z,18.39
2023-06-15T22:09:57.938Z,18.36
2023-06-15T22:14:01.493Z,18.17
2023-06-15T22:18:01.831Z,18.08
2023-06-15T22:22:02.749Z,18.01
2023-06-15T22:26:03.171Z,18.01
2023-06-15T22:30:06.648Z,17.81
2023-06-15T22:34:07.766Z,17.66
2023-06-15T22:38:08.042Z,17.71
2023-06-15T22:42:09.729Z,17.62
2023-06-15T22:46:12.702Z,17.60
2023-06-15T22:50:15.559Z,17.58
2023-06-15T22:54:15.952Z,17.57
2023-06-15T22:58:16.178Z,17.59
2023-06-15T23:02:19.069Z,17.45
2023-06-15T23:06:21.142Z,17.13
2023-06-15T23:10:22.239Z,17.29
2023-06-15T23:14:28.577Z,17.08
2023-06-15T23:18:33.139Z,16.94
2023-06-15T23:22:34.273Z,16.89
2023-06-15T23:26:37.913Z,16.89
2023-06-15T23:30:38.793Z,16.74
2023-06-15T23:34:41.998Z,16.65
2023-06-15T23:38:42.172Z,16.78
2023-06-15T23:42:42.357Z,16.71
2023-06-15T23:46:42.562Z,16.57
2023-06-15T23:50:45.494Z,16.62
2023-06-15T23:54:45.773Z,16.39
2023-06-15T23:58:45.961Z,16.27
